Time;durP1;ratioP1;P1;durP2;ratioP2;P2;SDS_P1;SDS_P2;PMS_P1;PMS_P2;Temp;Humidity;BMP_temperature;BMP_pressure;BME280_temperature;BME280_humidity;BME280_pressure;Samples;Min_cycle;Max_cycle;Signal;HPM_P1;HPM_P2
2021/07/08 00:01:49;;;;;;;;;;;;;;;29.53;37.90;97664.13;5050892;28;1464;-84
2021/07/08 00:04:14;;;;;;;;;;;;;;;29.51;37.92;97660.78;5051438;28;1196;-84
2021/07/08 00:06:40;;;;;;;;;;;;;;;29.46;38.05;97653.19;5052222;28;1688;-84
2021/07/08 00:09:05;;;;;;;;;;;;;;;29.42;37.96;97646.50;5048535;28;1902;-84
2021/07/08 00:11:31;;;;;;;;;;;;;;;29.52;37.63;97646.50;5045303;28;1211;-84
2021/07/08 00:13:56;;;;;;;;;;;;;;;29.52;37.73;97645.66;5048716;28;1692;-84
2021/07/08 00:16:21;;;;;;;;;;;;;;;29.46;37.83;97647.03;5050965;28;1689;-84
2021/07/08 00:18:46;;;;;;;;;;;;;;;29.43;37.79;97640.19;5051776;28;1445;-84
2021/07/08 00:21:12;;;;;;;;;;;;;;;29.44;37.96;97655.16;5058167;28;1307;-84
2021/07/08 00:23:37;;;;;;;;;;;;;;;29.46;37.86;97655.00;5065976;28;1198;-84
2021/07/08 00:26:02;;;;;;;;;;;;;;;29.47;38.08;97656.72;5064399;28;1739;-84
2021/07/08 00:28:27;;;;;;;;;;;;;;;29.53;37.76;97652.66;5044030;28;1957;-84
2021/07/08 00:30:52;;;;;;;;;;;;;;;29.50;37.64;97653.78;5054863;28;1732;-84
2021/07/08 00:33:20;;;;;;;;;;;;;;;29.52;37.92;97641.19;5056229;28;1085;-84
2021/07/08 00:35:46;;;;;;;;;;;;;;;29.50;37.75;97637.00;5033649;28;1676;-84
2021/07/08 00:38:11;;;;;;;;;;;;;;;29.46;38.08;97633.75;5053753;28;1136;-84
2021/07/08 00:40:37;;;;;;;;;;;;;;;29.46;37.87;97628.44;5048925;28;2192;-84
2021/07/08 00:43:02;;;;;;;;;;;;;;;29.45;37.80;97624.09;5052372;28;2057;-84
2021/07/08 00:45:27;;;;;;;;;;;;;;;29.45;37.96;97624.94;5048273;28;1660;-84
2021/07/08 00:47:53;;;;;;;;;;;;;;;29.44;37.94;97615.31;5052058;28;1976;-84
2021/07/08 00:50:20;;;;;;;;;;;;;;;29.47;37.73;97616.84;5044055;28;1480;-85
2021/07/08 00:52:45;;;;;;;;;;;;;;;29.70;37.21;97623.53;4993255;28;1652;-84
2021/07/08 00:55:10;;;;;;;;;;;;;;;29.61;37.29;97624.38;5047748;28;2031;-84
2021/07/08 00:57:38;;;;;;;;;;;;;;;29.49;37.84;97620.19;5045006;28;2383;-84
2021/07/08 01:00:04;;;;;;;;;;;;;;;29.52;37.71;97609.28;5022933;28;1794;-84
2021/07/08 01:02:29;;;;;;;;;;;;;;;29.55;37.49;97603.72;5049494;28;1183;-84
2021/07/08 01:04:54;;;;;;;;;;;;;;;29.44;37.98;97610.00;5044378;28;1510;-84
2021/07/08 01:07:20;;;;;;;;;;;;;;;29.47;37.71;97606.22;5055370;28;1589;-84
2021/07/08 01:09:46;;;;;;;;;;;;;;;29.56;37.61;97616.00;5046852;28;1905;-84
2021/07/08 01:12:11;;;;;;;;;;;;;;;29.57;37.44;97614.19;5052306;28;1347;-84
2021/07/08 01:14:36;;;;;;;;;;;;;;;29.50;37.72;97613.09;5055431;28;1502;-84
2021/07/08 01:17:02;;;;;;;;;;;;;;;29.52;37.92;97609.28;5048622;28;1164;-84
2021/07/08 01:19:29;;;;;;;;;;;;;;;29.50;37.54;97605.97;5058354;28;1358;-84
2021/07/08 01:21:54;;;;;;;;;;;;;;;29.55;37.50;97593.09;5047213;28;1331;-84
2021/07/08 01:24:19;;;;;;;;;;;;;;;29.46;37.99;97604.53;5056886;28;1643;-84
2021/07/08 01:26:44;;;;;;;;;;;;;;;29.53;37.75;97605.66;5037427;28;1449;-84
2021/07/08 01:29:10;;;;;;;;;;;;;;;29.48;37.82;97602.59;5055340;28;2001;-84
2021/07/08 01:31:35;;;;;;;;;;;;;;;29.50;37.83;97605.13;5055513;28;1029;-84
2021/07/08 01:34:00;;;;;;;;;;;;;;;29.48;37.91;97586.63;5054139;28;1239;-84
2021/07/08 01:36:25;;;;;;;;;;;;;;;29.52;37.50;97580.06;5057075;28;1164;-84
2021/07/08 01:38:51;;;;;;;;;;;;;;;29.52;37.55;97580.06;5046723;28;1551;-84
2021/07/08 01:41:16;;;;;;;;;;;;;;;29.52;37.78;97577.41;5063956;28;1264;-84
2021/07/08 01:43:41;;;;;;;;;;;;;;;29.45;37.92;97578.94;5053918;28;1723;-84
2021/07/08 01:46:07;;;;;;;;;;;;;;;29.52;37.59;97579.22;5052271;28;1742;-84
2021/07/08 01:48:32;;;;;;;;;;;;;;;29.52;37.54;97581.88;5042631;28;1969;-84
2021/07/08 01:50:58;;;;;;;;;;;;;;;29.56;37.69;97572.66;5061551;28;1350;-85
2021/07/08 01:53:24;;;;;;;;;;;;;;;29.53;37.83;97570.28;5044664;28;1511;-84
2021/07/08 01:55:49;;;;;;;;;;;;;;;29.50;37.66;97573.22;5059686;28;1864;-84
2021/07/08 01:58:14;;;;;;;;;;;;;;;29.50;37.75;97570.56;5044368;28;1342;-84
2021/07/08 02:00:39;;;;;;;;;;;;;;;29.54;37.51;97572.78;5052730;28;1616;-84
2021/07/08 02:03:04;;;;;;;;;;;;;;;29.55;37.54;97573.66;5054252;28;1214;-84
2021/07/08 02:05:30;;;;;;;;;;;;;;;29.50;37.91;97579.38;5049095;28;1583;-84
2021/07/08 02:07:55;;;;;;;;;;;;;;;29.50;37.75;97568.75;5035066;28;1965;-84
2021/07/08 02:10:20;;;;;;;;;;;;;;;29.52;37.75;97572.09;5049688;28;1325;-84
2021/07/08 02:12:45;;;;;;;;;;;;;;;29.45;37.55;97570.97;5041587;28;1121;-84
2021/07/08 02:15:11;;;;;;;;;;;;;;;29.52;37.54;97572.09;5045422;28;1570;-84
2021/07/08 02:17:36;;;;;;;;;;;;;;;29.59;37.52;97572.34;5038405;28;1349;-84
2021/07/08 02:20:01;;;;;;;;;;;;;;;29.55;37.68;97563.84;5041429;28;1256;-84
2021/07/08 02:22:26;;;;;;;;;;;;;;;29.53;37.53;97549.00;5040748;28;1575;-84
2021/07/08 02:24:52;;;;;;;;;;;;;;;29.49;37.65;97540.47;5052071;28;1049;-84
2021/07/08 02:27:17;;;;;;;;;;;;;;;29.46;37.55;97530.97;5042989;28;1248;-84
2021/07/08 02:29:42;;;;;;;;;;;;;;;29.50;37.66;97526.25;5059172;28;1897;-84
2021/07/08 02:32:08;;;;;;;;;;;;;;;29.47;37.87;97523.84;5041330;28;1356;-84
2021/07/08 02:34:36;;;;;;;;;;;;;;;29.50;37.81;97528.91;5050213;28;1191;-84
2021/07/08 02:37:01;;;;;;;;;;;;;;;29.50;37.77;97520.09;5048134;28;1092;-84
2021/07/08 02:39:26;;;;;;;;;;;;;;;29.47;37.78;97518.53;5042813;28;1669;-84
2021/07/08 02:41:52;;;;;;;;;;;;;;;29.44;37.74;97511.69;5044355;28;1465;-84
2021/07/08 02:44:17;;;;;;;;;;;;;;;29.41;37.81;97517.31;5055284;28;1591;-84
2021/07/08 02:46:42;;;;;;;;;;;;;;;29.52;37.67;97508.31;5038268;28;1170;-84
2021/07/08 02:49:07;;;;;;;;;;;;;;;29.48;37.87;97507.75;5051066;28;1926;-83
2021/07/08 02:51:32;;;;;;;;;;;;;;;29.48;37.94;97496.31;5052600;28;1500;-84
2021/07/08 02:53:58;;;;;;;;;;;;;;;29.48;37.66;97501.63;5038765;28;1499;-84
2021/07/08 02:56:23;;;;;;;;;;;;;;;29.45;37.95;97504.53;5036447;28;1449;-84
2021/07/08 02:58:48;;;;;;;;;;;;;;;29.50;37.90;97512.13;5040956;28;1156;-84
2021/07/08 03:01:13;;;;;;;;;;;;;;;29.48;37.80;97513.06;5039386;28;1581;-84
2021/07/08 03:03:38;;;;;;;;;;;;;;;29.57;37.42;97527.34;5046972;28;1239;-84
2021/07/08 03:06:04;;;;;;;;;;;;;;;29.47;37.46;97516.72;5036238;28;1591;-84
2021/07/08 03:08:29;;;;;;;;;;;;;;;29.56;37.62;97511.53;5050048;28;1898;-84
2021/07/08 03:10:54;;;;;;;;;;;;;;;29.48;37.54;97507.75;5057925;28;1391;-84
2021/07/08 03:13:20;;;;;;;;;;;;;;;29.47;37.78;97498.13;5041357;28;1062;-84
2021/07/08 03:15:45;;;;;;;;;;;;;;;29.53;37.61;97494.06;5038614;28;1653;-84
2021/07/08 03:18:10;;;;;;;;;;;;;;;29.45;38.09;97496.56;5053235;28;1128;-84
2021/07/08 03:20:35;;;;;;;;;;;;;;;29.47;37.80;97494.63;5034338;28;1497;-84
2021/07/08 03:23:02;;;;;;;;;;;;;;;29.51;37.83;97501.34;5058270;28;1291;-84
2021/07/08 03:25:27;;;;;;;;;;;;;;;29.51;37.79;97511.13;5040381;28;1557;-84
2021/07/08 03:27:53;;;;;;;;;;;;;;;29.54;37.75;97516.97;5051604;28;1961;-84
2021/07/08 03:30:19;;;;;;;;;;;;;;;29.54;37.53;97527.59;5046184;28;1578;-84
2021/07/08 03:32:44;;;;;;;;;;;;;;;29.55;37.60;97531.97;5031900;28;1478;-84
2021/07/08 03:35:10;;;;;;;;;;;;;;;29.54;37.75;97527.59;5051007;28;1120;-83
2021/07/08 03:37:38;;;;;;;;;;;;;;;29.51;37.79;97527.06;5042950;28;1500;-84
2021/07/08 03:40:04;;;;;;;;;;;;;;;29.47;37.68;97537.16;5045148;28;1601;-84
2021/07/08 03:42:31;;;;;;;;;;;;;;;29.53;37.64;97549.84;5041109;28;1259;-84
2021/07/08 03:44:57;;;;;;;;;;;;;;;29.53;37.77;97552.50;5040693;28;1578;-84
2021/07/08 03:47:22;;;;;;;;;;;;;;;29.55;37.77;97555.03;5041831;28;1498;-84
2021/07/08 03:49:47;;;;;;;;;;;;;;;29.58;37.77;97554.75;5049000;28;1938;-84
2021/07/08 03:52:12;;;;;;;;;;;;;;;29.55;37.62;97555.88;5049570;28;1396;-84
2021/07/08 03:54:37;;;;;;;;;;;;;;;29.49;37.79;97564.41;5046866;28;1621;-84
2021/07/08 03:57:03;;;;;;;;;;;;;;;29.51;37.87;97573.09;5049229;28;1164;-84
2021/07/08 03:59:28;;;;;;;;;;;;;;;29.51;37.57;97565.13;5027073;28;1579;-84
2021/07/08 04:01:53;;;;;;;;;;;;;;;29.52;37.65;97564.13;5059415;28;1128;-84
2021/07/08 04:04:18;;;;;;;;;;;;;;;29.55;37.45;97566.50;5048770;28;1129;-84
2021/07/08 04:06:44;;;;;;;;;;;;;;;29.53;37.91;97568.44;5041296;28;1804;-84
2021/07/08 04:09:09;;;;;;;;;;;;;;;29.52;37.75;97561.47;5049176;28;1957;-84
2021/07/08 04:11:34;;;;;;;;;;;;;;;29.48;37.75;97560.06;5057691;28;1384;-84
2021/07/08 04:13:59;;;;;;;;;;;;;;;29.55;37.63;97566.50;5047045;28;1310;-84
2021/07/08 04:16:24;;;;;;;;;;;;;;;29.45;37.76;97558.53;5052637;28;1565;-84
2021/07/08 04:18:50;;;;;;;;;;;;;;;29.47;37.75;97564.53;5057226;28;1144;-84
2021/07/08 04:21:15;;;;;;;;;;;;;;;29.47;37.62;97558.41;5054405;28;1501;-84
2021/07/08 04:23:40;;;;;;;;;;;;;;;29.54;37.75;97562.16;5051564;28;1664;-84
2021/07/08 04:26:05;;;;;;;;;;;;;;;29.51;37.65;97564.28;5047718;28;1081;-84
2021/07/08 04:28:31;;;;;;;;;;;;;;;29.51;37.64;97565.13;5056513;28;1906;-84
2021/07/08 04:30:56;;;;;;;;;;;;;;;29.54;37.69;97559.50;5036588;28;1576;-84
2021/07/08 04:33:21;;;;;;;;;;;;;;;29.54;37.64;97551.53;5059605;28;1113;-84
2021/07/08 04:35:46;;;;;;;;;;;;;;;29.52;37.52;97564.13;5054709;28;1339;-84
2021/07/08 04:38:12;;;;;;;;;;;;;;;29.47;37.83;97563.72;5058785;28;1552;-84
2021/07/08 04:40:37;;;;;;;;;;;;;;;29.46;37.58;97554.03;5048528;28;1539;-84
2021/07/08 04:43:03;;;;;;;;;;;;;;;29.51;37.95;97559.78;5047514;28;1266;-84
2021/07/08 04:45:29;;;;;;;;;;;;;;;29.49;37.73;97572.38;5045097;28;1598;-84
2021/07/08 04:47:54;;;;;;;;;;;;;;;29.55;37.53;97571.81;5058541;28;1975;-84
2021/07/08 04:50:20;;;;;;;;;;;;;;;29.45;37.88;97563.84;5053883;28;1498;-84
2021/07/08 04:52:45;;;;;;;;;;;;;;;29.53;37.73;97563.13;5056032;28;1070;-84
2021/07/08 04:55:11;;;;;;;;;;;;;;;29.53;37.64;97573.75;5053038;28;1680;-84
2021/07/08 04:57:36;;;;;;;;;;;;;;;29.55;37.60;97566.50;5052563;28;2284;-84
2021/07/08 05:00:03;;;;;;;;;;;;;;;29.52;37.75;97566.78;5049229;28;1696;-84
2021/07/08 05:02:28;;;;;;;;;;;;;;;29.50;37.62;97563.44;5043922;28;1896;-84
2021/07/08 05:04:53;;;;;;;;;;;;;;;29.50;37.86;97567.91;5057969;28;1744;-84
2021/07/08 05:07:19;;;;;;;;;;;;;;;29.47;37.76;97566.38;5044178;28;1553;-84
2021/07/08 05:09:44;;;;;;;;;;;;;;;29.53;37.69;97563.13;5056549;28;1936;-84
2021/07/08 05:12:09;;;;;;;;;;;;;;;29.53;37.52;97567.63;5051550;28;1512;-84
2021/07/08 05:14:34;;;;;;;;;;;;;;;29.52;37.78;97565.94;5044968;28;1669;-84
2021/07/08 05:17:03;;;;;;;;;;;;;;;29.52;37.76;97565.94;5058132;28;1171;-84
2021/07/08 05:19:28;;;;;;;;;;;;;;;29.57;37.53;97569.84;5044765;28;1432;-84
2021/07/08 05:21:54;;;;;;;;;;;;;;;29.54;37.92;97559.50;5037912;28;1391;-84
2021/07/08 05:24:21;;;;;;;;;;;;;;;29.49;37.86;97556.44;5059904;28;1544;-84
2021/07/08 05:26:46;;;;;;;;;;;;;;;29.56;37.74;97562.03;5030086;28;1244;-84
2021/07/08 05:29:11;;;;;;;;;;;;;;;29.51;37.52;97551.81;5051597;28;1894;-84
2021/07/08 05:31:36;;;;;;;;;;;;;;;29.56;37.75;97565.53;5050383;28;1492;-84
2021/07/08 05:34:02;;;;;;;;;;;;;;;29.44;38.02;97572.78;5046505;28;1278;-84
2021/07/08 05:36:27;;;;;;;;;;;;;;;29.53;37.65;97573.75;5050405;28;1338;-84
2021/07/08 05:38:52;;;;;;;;;;;;;;;29.49;37.92;97569.72;5040714;28;1555;-84
2021/07/08 05:41:17;;;;;;;;;;;;;;;29.47;38.17;97569.88;5055466;28;1207;-84
2021/07/08 05:43:42;;;;;;;;;;;;;;;29.56;37.60;97564.69;5046619;28;1395;-84
2021/07/08 05:46:08;;;;;;;;;;;;;;;29.51;37.68;97559.78;5055723;28;1576;-84
2021/07/08 05:48:33;;;;;;;;;;;;;;;29.45;37.80;97558.53;5043376;28;1891;-84
2021/07/08 05:50:58;;;;;;;;;;;;;;;29.45;37.88;97549.72;5049256;28;1329;-84
2021/07/08 05:53:23;;;;;;;;;;;;;;;29.55;37.47;97534.63;5041456;28;1613;-84
2021/07/08 05:55:48;;;;;;;;;;;;;;;29.50;37.77;97544.84;5061973;28;1382;-84
2021/07/08 05:58:14;;;;;;;;;;;;;;;29.48;37.53;97549.44;5056591;28;1265;-85
2021/07/08 06:00:39;;;;;;;;;;;;;;;29.58;37.54;97544.09;5043045;28;1685;-85
2021/07/08 06:03:04;;;;;;;;;;;;;;;29.59;37.38;97553.75;5042056;28;1339;-84
2021/07/08 06:05:29;;;;;;;;;;;;;;;29.46;37.66;97551.38;5049561;28;1550;-83
2021/07/08 06:07:54;;;;;;;;;;;;;;;29.50;38.02;97551.97;5045158;28;1961;-84
2021/07/08 06:10:20;;;;;;;;;;;;;;;29.47;37.68;97561.06;5053209;28;1445;-84
2021/07/08 06:12:46;;;;;;;;;;;;;;;29.37;37.83;97558.41;5042765;28;1302;-84
2021/07/08 06:15:12;;;;;;;;;;;;;;;29.56;37.53;97568.19;5040019;28;1571;-84
2021/07/08 06:17:37;;;;;;;;;;;;;;;29.53;37.54;97568.44;5058352;28;1507;-83
2021/07/08 06:20:02;;;;;;;;;;;;;;;29.57;37.65;97571.69;5054275;28;1283;-83
2021/07/08 06:22:28;;;;;;;;;;;;;;;29.52;37.79;97566.78;5049832;28;1751;-84
2021/07/08 06:24:53;;;;;;;;;;;;;;;29.51;37.77;97572.25;5047492;28;1645;-84
2021/07/08 06:27:18;;;;;;;;;;;;;;;29.45;38.14;97566.50;5055996;28;1415;-84
2021/07/08 06:29:43;;;;;;;;;;;;;;;29.51;37.96;97565.13;5056525;28;1906;-84
2021/07/08 06:32:09;;;;;;;;;;;;;;;29.51;37.61;97557.13;5051249;28;1164;-83
2021/07/08 06:34:35;;;;;;;;;;;;;;;29.50;37.85;97558.13;5055593;28;1196;-83
2021/07/08 06:37:00;;;;;;;;;;;;;;;29.54;37.69;97558.66;5043230;28;1518;-84
2021/07/08 06:39:25;;;;;;;;;;;;;;;29.52;37.54;97564.13;5042141;28;1610;-84
2021/07/08 06:41:50;;;;;;;;;;;;;;;29.51;37.75;97565.13;5043731;28;1034;-84
2021/07/08 06:44:15;;;;;;;;;;;;;;;29.44;38.00;97559.50;5051028;28;1503;-83
2021/07/08 06:46:43;;;;;;;;;;;;;;;29.45;37.76;97553.22;5041779;28;1217;-84
2021/07/08 06:49:08;;;;;;;;;;;;;;;29.48;37.79;97550.28;5042014;28;1906;-84
2021/07/08 06:51:33;;;;;;;;;;;;;;;29.55;37.63;97550.56;5049883;28;1244;-83
2021/07/08 06:54:00;;;;;;;;;;;;;;;29.53;37.95;97559.66;5057413;28;1624;-83
2021/07/08 06:56:25;;;;;;;;;;;;;;;29.53;37.82;97565.78;5055080;28;1152;-84
2021/07/08 06:58:50;;;;;;;;;;;;;;;29.48;37.68;97576.00;5058183;28;1469;-84
2021/07/08 07:01:16;;;;;;;;;;;;;;;29.48;37.84;97582.16;5041724;28;1563;-84
2021/07/08 07:03:41;;;;;;;;;;;;;;;29.52;37.58;97579.22;5035258;28;1305;-84
2021/07/08 07:06:06;;;;;;;;;;;;;;;29.54;37.83;97580.75;5049497;28;1648;-85
2021/07/08 07:08:32;;;;;;;;;;;;;;;29.56;37.58;97578.81;5043575;28;1948;-85
2021/07/08 07:10:58;;;;;;;;;;;;;;;29.63;37.54;97584.38;5050980;28;1374;-85
2021/07/08 07:13:23;;;;;;;;;;;;;;;29.58;37.61;97587.47;5043174;28;1789;-85
2021/07/08 07:15:48;;;;;;;;;;;;;;;29.48;37.72;97574.19;5057010;28;1688;-85
2021/07/08 07:18:13;;;;;;;;;;;;;;;29.55;37.66;97584.28;5051280;28;1258;-85
2021/07/08 07:20:38;;;;;;;;;;;;;;;29.60;37.56;97574.88;5049483;28;1316;-85
2021/07/08 07:23:04;;;;;;;;;;;;;;;29.63;37.52;97573.75;5046807;28;1326;-84
2021/07/08 07:25:29;;;;;;;;;;;;;;;29.52;37.80;97576.56;5051799;28;1809;-85
2021/07/08 07:27:54;;;;;;;;;;;;;;;29.57;37.50;97566.34;5049629;28;1979;-85
2021/07/08 07:30:20;;;;;;;;;;;;;;;29.58;37.81;97570.69;5042010;28;1648;-85
2021/07/08 07:32:45;;;;;;;;;;;;;;;29.60;37.52;97566.06;5054924;28;1327;-85
2021/07/08 07:35:11;;;;;;;;;;;;;;;29.59;37.77;97569.69;5055025;28;1268;-85
2021/07/08 07:37:36;;;;;;;;;;;;;;;29.60;37.63;97574.88;5069489;28;1179;-84
2021/07/08 07:40:02;;;;;;;;;;;;;;;29.55;37.52;97571.00;5068298;28;1623;-85
2021/07/08 07:42:27;;;;;;;;;;;;;;;29.53;37.60;97568.44;5045336;28;1251;-85
2021/07/08 07:44:52;;;;;;;;;;;;;;;29.59;37.58;97573.19;5043602;28;1671;-85
2021/07/08 07:47:17;;;;;;;;;;;;;;;29.59;37.71;97564.38;5053414;28;1120;-85
2021/07/08 07:49:43;;;;;;;;;;;;;;;29.61;37.44;97573.03;5047761;28;1918;-85
2021/07/08 07:52:08;;;;;;;;;;;;;;;29.59;37.66;97569.69;5048756;28;1618;-84
2021/07/08 07:54:33;;;;;;;;;;;;;;;29.67;37.65;97572.47;5041530;28;1336;-85
2021/07/08 07:57:01;;;;;;;;;;;;;;;29.57;37.43;97577.00;5043105;28;1456;-84
2021/07/08 07:59:26;;;;;;;;;;;;;;;29.63;37.71;97574.59;5056196;28;1571;-84
2021/07/08 08:01:51;;;;;;;;;;;;;;;29.57;37.52;97561.03;5041297;28;1366;-84
2021/07/08 08:04:16;;;;;;;;;;;;;;;29.56;37.53;97557.56;5055861;28;1179;-84
2021/07/08 08:09:26;;;;;;;;;;;;;;;29.51;37.75;97559.78;5052411;28;1973;-84
2021/07/08 08:11:52;;;;;;;;;;;;;;;29.60;37.48;97569.53;5045923;28;1394;-84
2021/07/08 08:14:18;;;;;;;;;;;;;;;29.55;37.63;97574.47;5041906;28;1651;-84
2021/07/08 08:16:43;;;;;;;;;;;;;;;29.48;37.85;97583.97;5045346;28;1825;-84
2021/07/08 08:19:08;;;;;;;;;;;;;;;29.51;37.92;97589.03;5050478;28;1372;-84
2021/07/08 08:21:33;;;;;;;;;;;;;;;28.88;39.75;97592.16;5039330;28;3400;-82
2021/07/08 08:23:58;;;;;;;;;;;;;;;28.93;42.25;97591.78;5054008;28;3660;-81
2021/07/08 08:26:26;;;;;;;;;;;;;;;29.43;38.81;97583.56;5052121;28;1911;-82
2021/07/08 08:28:51;;;;;;;;;;;;;;;28.60;40.29;97596.53;5053077;28;1957;-82
2021/07/08 08:31:17;;;;;;;;;;;;;;;28.98;39.60;97578.91;5052589;28;2132;-88
2021/07/08 08:33:42;;;;;;;;;;;;;;;28.40;40.84;97580.72;5050205;28;2172;-88
2021/07/08 08:36:07;;;;;;;;;;;;;;;27.84;41.89;97586.56;5049185;28;1972;-93
2021/07/08 08:38:32;;;;;;;;;;;;;;;27.31;43.40;97582.25;5022365;28;2055;-87
2021/07/08 08:40:58;;;;;;;;;;;;;;;26.96;43.61;97591.34;5047266;28;2209;-87
2021/07/08 08:43:23;;;;;;;;;;;;;;;27.14;43.69;97596.09;5046407;28;2410;-87
2021/07/08 08:45:49;;;;;;;;;;;;;;;27.19;43.80;97592.09;5046701;28;2004;-87
2021/07/08 08:48:14;;;;;;;;;;;;;;;26.84;44.41;97596.81;5034677;28;2316;-88
2021/07/08 08:50:40;;;;;;;;;;;;;;;27.00;44.61;97599.84;5048326;28;2049;-87
2021/07/08 08:53:05;;;;;;;;;;;;;;;27.02;44.47;97592.66;5046210;28;1891;-88
2021/07/08 08:55:33;;;;;;;;;;;;;;;27.18;43.70;97590.41;5035537;28;1914;-88
2021/07/08 08:57:59;;;;;;;;;;;;;;;27.05;44.09;97595.06;5034710;28;1943;-87
2021/07/08 09:00:24;;;;;;;;;;;;;;;27.25;44.41;97601.28;5049029;28;2185;-91
2021/07/08 09:02:58;;;;;;;;;;;;;;;27.37;43.72;97602.06;5041880;28;1937;-92
2021/07/08 09:05:23;;;;;;;;;;;;;;;27.50;43.00;97600.91;5045664;28;2108;-88
2021/07/08 09:07:48;;;;;;;;;;;;;;;27.29;43.63;97612.47;5046133;28;1922;-88
2021/07/08 09:10:15;;;;;;;;;;;;;;;27.31;43.68;97603.44;5046734;28;2114;-88
2021/07/08 09:12:40;;;;;;;;;;;;;;;27.19;43.66;97605.31;5047930;28;1981;-88
2021/07/08 09:15:18;;;;;;;;;;;;;;;27.15;44.14;97603.06;5033282;28;1997;-88
2021/07/08 09:17:44;;;;;;;;;;;;;;;27.24;44.49;97604.91;5047915;28;2131;-88
2021/07/08 09:20:10;;;;;;;;;;;;;;;27.17;44.09;97609.88;5038050;28;1915;-89
2021/07/08 09:22:35;;;;;;;;;;;;;;;27.25;44.80;97619.81;5046863;28;1961;-88
2021/07/08 09:25:00;;;;;;;;;;;;;;;27.14;44.21;97604.88;5034865;28;2214;-88
2021/07/08 09:27:26;;;;;;;;;;;;;;;27.10;44.84;97595.53;5047455;28;2038;-89
2021/07/08 09:29:52;;;;;;;;;;;;;;;27.32;43.81;97593.66;5017620;28;1921;-89
2021/07/08 09:32:17;;;;;;;;;;;;;;;27.26;43.70;97601.19;5047886;28;1997;-89
2021/07/08 09:34:46;;;;;;;;;;;;;;;27.30;43.92;97596.47;5047181;28;2200;-89
2021/07/08 09:37:12;;;;;;;;;;;;;;;27.29;44.12;97593.94;5037282;28;2263;-89
2021/07/08 09:39:37;;;;;;;;;;;;;;;27.24;44.10;97591.69;5045452;28;2232;-88
2021/07/08 09:42:03;;;;;;;;;;;;;;;27.34;43.80;97595.25;5046981;28;2153;-89
2021/07/08 09:44:28;;;;;;;;;;;;;;;27.27;45.29;97594.09;5049366;28;1927;-90
2021/07/08 09:46:54;;;;;;;;;;;;;;;27.08;45.25;97588.66;5040061;28;2178;-90
2021/07/08 09:49:19;;;;;;;;;;;;;;;27.32;43.85;97589.22;5034106;28;2162;-91
2021/07/08 09:51:45;;;;;;;;;;;;;;;27.57;43.16;97592.41;5035875;28;1897;-92
2021/07/08 09:54:19;;;;;;;;;;;;;;;27.15;44.07;97589.81;5036087;28;1940;-90
2021/07/08 09:56:56;;;;;;;;;;;;;;;27.29;43.93;97600.06;5047606;28;2113;-91
2021/07/08 09:59:21;;;;;;;;;;;;;;;27.16;44.42;97610.84;5044140;28;2153;-91
2021/07/08 10:01:57;;;;;;;;;;;;;;;27.05;44.45;97610.09;5036339;28;2007;-91
2021/07/08 10:04:22;;;;;;;;;;;;;;;27.42;43.53;97613.13;5033996;28;2231;-91
2021/07/08 10:06:48;;;;;;;;;;;;;;;27.42;43.89;97624.56;5033531;28;2054;-91
2021/07/08 10:09:15;;;;;;;;;;;;;;;27.43;43.53;97625.41;5040063;28;2003;-91
2021/07/08 10:11:40;;;;;;;;;;;;;;;27.37;43.90;97620.63;5041777;28;2269;-91
2021/07/08 10:14:07;;;;;;;;;;;;;;;27.26;43.91;97624.19;5037182;28;2030;-91
2021/07/08 10:16:32;;;;;;;;;;;;;;;27.06;44.68;97606.47;5049038;28;3860;-90
2021/07/08 10:18:59;;;;;;;;;;;;;;;27.17;44.38;97593.16;5032050;28;2084;-91
2021/07/08 10:21:29;;;;;;;;;;;;;;;27.36;43.95;97584.50;5015942;28;1961;-92
2021/07/08 10:23:54;;;;;;;;;;;;;;;27.21;43.99;97591.94;5017946;28;2005;-92
2021/07/08 10:26:19;;;;;;;;;;;;;;;27.46;43.80;97577.44;5042583;28;2256;-92
2021/07/08 10:28:46;;;;;;;;;;;;;;;27.17;44.60;97572.81;5046725;28;1987;-92
2021/07/08 10:31:15;;;;;;;;;;;;;;;27.22;44.42;97583.03;5035268;28;1891;-92
2021/07/08 10:33:40;;;;;;;;;;;;;;;27.30;44.06;97562.03;5013218;28;2089;-92
2021/07/08 10:36:05;;;;;;;;;;;;;;;27.15;44.22;97539.50;5034999;28;1928;-93
2021/07/08 10:38:31;;;;;;;;;;;;;;;27.18;44.03;97526.03;5041803;28;1172;-92
2021/07/08 10:40:57;;;;;;;;;;;;;;;27.19;44.12;97512.66;5050488;28;2046;-92
2021/07/08 10:43:35;;;;;;;;;;;;;;;27.20;44.35;97502.91;5031091;28;2171;-92
2021/07/08 10:46:06;;;;;;;;;;;;;;;27.27;44.05;97504.06;5046719;28;1929;-92
2021/07/08 10:48:38;;;;;;;;;;;;;;;27.31;43.83;97500.16;5031641;28;2093;-92
2021/07/08 10:51:03;;;;;;;;;;;;;;;27.19;44.12;97514.47;5034923;28;1928;-92
2021/07/08 10:53:33;;;;;;;;;;;;;;;27.36;43.83;97531.53;5033236;28;3707;-91
2021/07/08 10:55:59;;;;;;;;;;;;;;;27.23;44.12;97529.09;5031273;28;1973;-92
2021/07/08 10:58:43;;;;;;;;;;;;;;;27.27;44.11;97531.38;5047681;28;1870;-91
2021/07/08 11:01:09;;;;;;;;;;;;;;;27.34;44.85;97534.34;5046918;28;1918;-90
2021/07/08 11:03:53;;;;;;;;;;;;;;;27.56;43.91;97541.22;5035111;28;1916;-89
2021/07/08 11:06:25;;;;;;;;;;;;;;;27.31;44.29;97539.88;5046877;28;1926;-89
2021/07/08 11:08:57;;;;;;;;;;;;;;;27.12;45.01;97530.03;5049601;28;1934;-91
2021/07/08 11:11:23;;;;;;;;;;;;;;;26.79;45.42;97520.47;5049280;28;1544;-89
2021/07/08 11:13:48;;;;;;;;;;;;;;;27.18;44.75;97518.09;5051337;28;1237;-89
2021/07/08 11:16:32;;;;;;;;;;;;;;;27.11;44.91;97515.13;5057111;28;1605;-91
2021/07/08 11:19:01;;;;;;;;;;;;;;;27.12;44.76;97510.66;5052071;28;1411;-88
2021/07/08 11:21:45;;;;;;;;;;;;;;;27.18;44.99;97531.34;5045807;28;1526;-89
2021/07/08 11:24:16;;;;;;;;;;;;;;;27.13;44.67;97542.31;5052981;28;1200;-89
2021/07/08 11:26:53;;;;;;;;;;;;;;;27.06;45.03;97554.38;5039151;28;1458;-89
2021/07/08 11:29:31;;;;;;;;;;;;;;;27.19;44.41;97565.63;5049825;28;1972;-90
2021/07/08 11:31:56;;;;;;;;;;;;;;;27.08;44.59;97567.47;5057642;28;1402;-89
2021/07/08 11:34:21;;;;;;;;;;;;;;;27.15;44.79;97564.19;5040916;28;1172;-89
2021/07/08 11:36:46;;;;;;;;;;;;;;;27.23;44.18;97566.16;5052653;28;1183;-89
2021/07/08 11:39:12;;;;;;;;;;;;;;;27.19;44.65;97572.72;5042048;28;1563;-89
2021/07/08 11:41:40;;;;;;;;;;;;;;;27.32;44.31;97570.69;5048656;28;1169;-89
2021/07/08 11:44:05;;;;;;;;;;;;;;;27.19;44.51;97565.63;5041016;28;1417;-90
2021/07/08 11:46:31;;;;;;;;;;;;;;;27.25;44.34;97574.81;5052253;28;1597;-88
2021/07/08 11:48:59;;;;;;;;;;;;;;;27.13;44.77;97574.06;5052138;28;1967;-88
2021/07/08 11:51:29;;;;;;;;;;;;;;;27.16;44.56;97602.91;5048810;28;1339;-89
2021/07/08 11:53:55;;;;;;;;;;;;;;;27.11;44.82;97618.38;5044152;28;1636;-88
2021/07/08 11:56:20;;;;;;;;;;;;;;;27.18;44.60;97624.81;5039493;28;988;-89
2021/07/08 11:58:46;;;;;;;;;;;;;;;27.18;44.39;97608.09;5051993;28;1428;-89
2021/07/08 12:01:12;;;;;;;;;;;;;;;27.17;44.80;97601.94;5047343;28;1598;-89
2021/07/08 12:03:43;;;;;;;;;;;;;;;27.10;44.88;97592.88;5039845;28;1438;-89
2021/07/08 12:06:09;;;;;;;;;;;;;;;27.04;45.18;97589.91;5045640;28;1574;-89
2021/07/08 12:08:35;;;;;;;;;;;;;;;27.12;44.98;97585.63;5040992;28;1973;-87
2021/07/08 12:11:24;;;;;;;;;;;;;;;27.06;45.17;97574.72;5042910;28;1285;-88
2021/07/08 12:13:53;;;;;;;;;;;;;;;27.09;44.97;97582.38;5046591;28;1574;-89
2021/07/08 12:16:30;;;;;;;;;;;;;;;27.08;45.18;97570.97;5051725;28;1607;-89
2021/07/08 12:18:56;;;;;;;;;;;;;;;27.16;44.59;97570.31;5041544;28;1276;-89
2021/07/08 12:21:47;;;;;;;;;;;;;;;27.08;45.07;97560.38;5052495;28;1291;-90
2021/07/08 12:24:18;;;;;;;;;;;;;;;27.17;44.52;97571.97;5047965;28;1637;-90
2021/07/08 12:26:44;;;;;;;;;;;;;;;27.18;44.49;97576.34;5051142;28;1325;-90
2021/07/08 12:29:10;;;;;;;;;;;;;;;27.09;44.79;97574.44;5050826;28;1894;-90
2021/07/08 12:31:42;;;;;;;;;;;;;;;27.11;44.95;97565.44;5050972;28;1976;-90
2021/07/08 12:34:07;;;;;;;;;;;;;;;27.16;44.69;97571.16;5045529;28;1362;-90
2021/07/08 12:36:32;;;;;;;;;;;;;;;27.21;44.31;97565.47;5051236;28;1349;-90
2021/07/08 12:38:58;;;;;;;;;;;;;;;27.17;44.76;97562.22;5046648;28;1552;-90
2021/07/08 12:41:23;;;;;;;;;;;;;;;27.12;44.69;97559.16;5042200;28;1177;-90
2021/07/08 12:43:48;;;;;;;;;;;;;;;27.05;45.02;97543.94;5055119;28;1329;-91
2021/07/08 12:46:13;;;;;;;;;;;;;;;27.05;44.92;97546.56;5051780;28;1545;-90
2021/07/08 12:48:38;;;;;;;;;;;;;;;27.07;44.86;97531.38;5053459;28;1972;-91
2021/07/08 12:51:04;;;;;;;;;;;;;;;27.03;45.38;97544.03;5039107;28;2098;-90
2021/07/08 12:53:29;;;;;;;;;;;;;;;27.03;45.00;97551.97;5054767;28;1195;-91
2021/07/08 12:55:57;;;;;;;;;;;;;;;27.07;44.98;97565.81;5054433;28;1607;-91